createdAt,value
2019-06-07T00:02:18.763Z,91.31
2019-06-07T00:04:48.400Z,94.75
2019-06-07T00:07:21.433Z,93.37
2019-06-07T00:09:48.997Z,93.09
2019-06-07T00:12:21.550Z,93.12
2019-06-07T00:14:49.545Z,93.12
2019-06-07T00:17:20.252Z,92.94
2019-06-07T00:19:50.278Z,92.78
2019-06-07T00:22:32.502Z,92.68
2019-06-07T00:24:51.192Z,92.93
2019-06-07T00:27:22.546Z,92.54
2019-06-07T00:29:51.805Z,92.89
2019-06-07T00:32:22.330Z,93.59
2019-06-07T00:34:51.942Z,94.99
2019-06-07T00:37:25.325Z,94.20
2019-06-07T00:40:12.972Z,94.12
2019-06-07T00:42:24.259Z,94.06
2019-06-07T00:44:54.070Z,93.91
2019-06-07T00:47:25.546Z,93.85
2019-06-07T00:49:54.743Z,94.17
2019-06-07T00:53:11.448Z,94.13
2019-06-07T00:54:55.451Z,94.75
2019-06-07T00:57:24.864Z,94.64
2019-06-07T00:59:54.479Z,94.81
2019-06-07T01:02:28.312Z,94.24
2019-06-07T01:04:55.078Z,95.49
2019-06-07T01:07:24.633Z,94.96
2019-06-07T01:09:54.035Z,93.99
2019-06-07T01:12:24.604Z,93.66
2019-06-07T01:14:54.765Z,94.15
2019-06-07T01:17:41.441Z,94.80
2019-06-07T01:19:58.448Z,94.90
2019-06-07T01:22:29.467Z,95.17
2019-06-07T01:24:59.124Z,95.01
2019-06-07T01:27:28.837Z,95.42
2019-06-07T01:29:58.378Z,95.24
2019-06-07T01:32:31.840Z,95.12
2019-06-07T01:35:00.486Z,96.56
2019-06-07T01:37:30.440Z,96.67
2019-06-07T01:40:00.055Z,96.67
2019-06-07T01:42:31.010Z,96.88
2019-06-07T01:45:00.713Z,97.30
2019-06-07T01:47:32.094Z,97.62
2019-06-07T01:50:01.304Z,97.52
2019-06-07T01:52:30.683Z,97.24
2019-06-07T01:55:00.171Z,97.56
2019-06-07T01:57:44.204Z,98.00
2019-06-07T02:00:00.845Z,99.01
2019-06-07T02:02:31.837Z,98.99
2019-06-07T02:05:01.426Z,99.83
2019-06-07T02:07:33.246Z,98.82
2019-06-07T02:10:02.191Z,98.38
2019-06-07T02:12:42.446Z,99.62
2019-06-07T02:15:07.355Z,99.85
2019-06-07T02:17:37.302Z,99.86
2019-06-07T02:20:09.494Z,100.00
2019-06-07T02:22:38.906Z,99.82
2019-06-07T02:27:40.007Z,100.00
2019-06-07T02:30:37.169Z,99.68
2019-06-07T02:32:41.530Z,100.00
2019-06-07T02:35:11.037Z,100.00
2019-06-07T02:37:40.475Z,100.00
2019-06-07T02:40:10.644Z,100.00
2019-06-07T02:42:42.819Z,100.00
2019-06-07T02:45:11.454Z,100.00
2019-06-07T02:47:41.761Z,100.00
2019-06-07T02:50:14.059Z,100.00
2019-06-07T02:52:43.532Z,100.00
2019-06-07T02:55:13.227Z,100.00
2019-06-07T02:57:43.347Z,100.00
2019-06-07T03:00:41.246Z,100.00
2019-06-07T03:02:46.666Z,99.96
2019-06-07T03:05:16.176Z,100.00
2019-06-07T03:07:48.039Z,100.00
2019-06-07T03:10:17.565Z,100.00
2019-06-07T03:12:50.719Z,100.00
2019-06-07T03:15:32.638Z,100.00
2019-06-07T03:17:57.675Z,100.00
2019-06-07T03:20:32.848Z,100.00
2019-06-07T03:23:02.504Z,100.00
2019-06-07T03:25:37.014Z,100.00
2019-06-07T03:28:07.364Z,100.00
2019-06-07T03:30:52.047Z,100.00
2019-06-07T03:33:09.493Z,100.00
2019-06-07T03:35:40.650Z,100.00
2019-06-07T03:38:10.044Z,100.00
2019-06-07T03:40:40.245Z,100.00
2019-06-07T03:43:09.787Z,100.00
2019-06-07T03:45:41.480Z,100.00
2019-06-07T03:48:11.871Z,100.00
2019-06-07T03:50:42.238Z,100.00
2019-06-07T03:53:12.089Z,100.00
2019-06-07T03:55:41.622Z,100.00
2019-06-07T03:58:31.448Z,100.00
2019-06-07T04:00:43.438Z,100.00
2019-06-07T04:03:32.368Z,100.00
2019-06-07T04:05:44.319Z,100.00
2019-06-07T04:08:13.775Z,100.00
2019-06-07T04:10:58.721Z,100.00
2019-06-07T04:13:14.628Z,100.00
2019-06-07T04:15:44.052Z,100.00
2019-06-07T04:18:13.525Z,100.00
2019-06-07T04:20:43.002Z,100.00
2019-06-07T04:23:27.580Z,100.00
2019-06-07T04:25:43.902Z,100.00
2019-06-07T04:28:13.344Z,100.00
2019-06-07T04:30:44.451Z,99.85
2019-06-07T04:33:14.901Z,99.07
2019-06-07T04:35:45.316Z,98.46
2019-06-07T04:38:15.253Z,97.68
2019-06-07T04:40:45.021Z,97.21
2019-06-07T04:43:14.536Z,96.56
2019-06-07T04:45:50.676Z,95.85
2019-06-07T04:48:15.154Z,95.38
2019-06-07T04:50:44.575Z,94.30
2019-06-07T04:53:14.017Z,93.92
2019-06-07T04:55:43.537Z,93.36
2019-06-07T04:58:13.072Z,92.97
2019-06-07T05:00:52.406Z,91.87
2019-06-07T05:03:14.288Z,91.53
2019-06-07T05:05:44.081Z,90.56
2019-06-07T05:08:27.456Z,90.41
2019-06-07T05:10:44.759Z,90.25
2019-06-07T05:13:14.212Z,89.76
2019-06-07T05:15:43.652Z,89.48
2019-06-07T05:18:13.108Z,89.59
2019-06-07T05:20:44.476Z,88.20
2019-06-07T05:23:59.550Z,88.31
2019-06-07T05:25:45.016Z,87.94
2019-06-07T05:28:14.508Z,87.53
2019-06-07T05:31:03.891Z,86.77
2019-06-07T05:33:15.167Z,87.54
2019-06-07T05:35:44.692Z,86.59
2019-06-07T05:38:14.190Z,86.74
2019-06-07T05:40:48.682Z,86.37
2019-06-07T05:43:25.548Z,85.28
2019-06-07T05:45:55.070Z,85.19
2019-06-07T05:48:24.666Z,84.67
2019-06-07T05:50:57.735Z,84.20
2019-06-07T05:53:25.289Z,84.45
2019-06-07T05:55:56.343Z,84.09
2019-06-07T05:58:25.756Z,83.29
2019-06-07T06:00:55.203Z,82.96
2019-06-07T06:03:24.652Z,81.73
2019-06-07T06:05:55.519Z,81.16
2019-06-07T06:08:25.743Z,80.54
2019-06-07T06:10:55.268Z,80.40
2019-06-07T06:13:24.724Z,80.15
2019-06-07T06:16:01.150Z,79.03
2019-06-07T06:18:25.321Z,78.03
2019-06-07T06:21:15.654Z,78.22
2019-06-07T06:23:26.008Z,78.59
2019-06-07T06:25:57.376Z,77.30
2019-06-07T06:28:27.306Z,76.58
2019-06-07T06:30:57.029Z,75.85
2019-06-07T06:33:34.538Z,76.04
2019-06-07T06:35:59.015Z,75.80
2019-06-07T06:38:28.446Z,75.03
2019-06-07T06:41:14.322Z,74.39
2019-06-07T06:43:29.014Z,75.13
2019-06-07T06:45:58.482Z,74.42
2019-06-07T06:48:27.913Z,72.45
2019-06-07T06:50:57.442Z,72.56
2019-06-07T06:53:26.912Z,72.60
2019-06-07T06:55:56.367Z,70.76
2019-06-07T06:58:25.906Z,70.75
2019-06-07T07:01:06.010Z,71.79
2019-06-07T07:06:23.442Z,71.15
2019-06-07T07:08:29.783Z,72.52
2019-06-07T07:11:00.051Z,70.30
2019-06-07T07:13:29.524Z,70.49
2019-06-07T07:15:58.998Z,68.40
2019-06-07T07:18:28.430Z,66.25
2019-06-07T07:20:57.939Z,66.54
2019-06-07T07:23:27.504Z,67.61
2019-06-07T07:25:59.308Z,65.81
2019-06-07T07:28:28.170Z,65.40
2019-06-07T07:30:57.690Z,65.45
2019-06-07T07:34:20.142Z,65.45
2019-06-07T07:36:28.474Z,64.65
2019-06-07T07:38:29.481Z,65.37
2019-06-07T07:41:13.994Z,65.94
2019-06-07T07:43:30.079Z,67.78
2019-06-07T07:46:03.225Z,66.88
2019-06-07T07:48:31.071Z,66.04
2019-06-07T07:51:03.090Z,65.29
2019-06-07T07:53:47.853Z,66.38
2019-06-07T07:56:03.115Z,67.45
2019-06-07T07:58:32.736Z,66.88
2019-06-07T08:01:10.079Z,65.29
2019-06-07T08:03:33.348Z,67.63
2019-06-07T08:06:02.887Z,69.47
2019-06-07T08:08:32.352Z,67.51
2019-06-07T08:11:02.538Z,69.64
2019-06-07T08:13:32.164Z,66.63
2019-06-07T08:16:10.606Z,66.05
2019-06-07T08:18:32.827Z,66.05
2019-06-07T08:21:21.157Z,66.44
2019-06-07T08:23:33.436Z,65.14
2019-06-07T08:26:02.900Z,65.22
2019-06-07T08:28:32.477Z,65.43
2019-06-07T08:31:06.875Z,65.52
2019-06-07T08:33:34.763Z,65.64
2019-06-07T08:36:19.492Z,64.17
2019-06-07T08:38:47.619Z,63.28
2019-06-07T08:41:12.116Z,63.28
2019-06-07T08:43:38.679Z,61.10
2019-06-07T08:46:08.296Z,60.55
2019-06-07T08:48:37.786Z,62.63
2019-06-07T08:51:08.606Z,60.12
2019-06-07T08:53:38.875Z,60.41
2019-06-07T08:56:11.031Z,61.94
2019-06-07T08:58:40.229Z,59.89
2019-06-07T09:01:09.618Z,61.80
2019-06-07T09:03:39.417Z,59.59
2019-06-07T09:06:53.864Z,61.87
2019-06-07T09:08:40.243Z,61.20
2019-06-07T09:11:11.318Z,62.42
2019-06-07T09:13:41.115Z,61.82
2019-06-07T09:16:10.533Z,58.94
2019-06-07T09:18:44.016Z,57.57
2019-06-07T09:21:11.087Z,58.56
2019-06-07T09:23:40.602Z,58.06
2019-06-07T09:26:16.569Z,58.90
2019-06-07T09:28:41.801Z,57.27
2019-06-07T09:31:12.759Z,57.13
2019-06-07T09:33:42.537Z,55.06
2019-06-07T09:36:13.489Z,54.56
2019-06-07T09:38:44.363Z,54.92
2019-06-07T09:41:15.474Z,52.99
2019-06-07T09:44:10.835Z,53.04
2019-06-07T09:46:16.842Z,51.30
2019-06-07T09:49:10.744Z,53.33
2019-06-07T09:51:20.386Z,53.33
2019-06-07T09:53:48.932Z,51.59
2019-06-07T09:56:19.212Z,54.86
2019-06-07T09:58:52.677Z,53.46
2019-06-07T10:01:19.847Z,52.83
2019-06-07T10:03:49.282Z,52.86
2019-06-07T10:06:18.687Z,50.91
2019-06-07T10:11:19.280Z,52.13
2019-06-07T10:13:48.726Z,52.03
2019-06-07T10:16:18.174Z,51.68
2019-06-07T10:18:47.773Z,51.04
2019-06-07T10:21:17.210Z,50.11
2019-06-07T10:23:46.657Z,51.16
2019-06-07T10:26:16.252Z,51.16
2019-06-07T10:28:45.689Z,50.83
2019-06-07T10:31:15.133Z,51.58
2019-06-07T10:33:44.603Z,50.66
2019-06-07T10:36:14.048Z,50.12
2019-06-07T10:38:43.491Z,50.12
2019-06-07T10:41:12.920Z,50.40
2019-06-07T10:43:42.374Z,50.48
2019-06-07T10:46:12.153Z,48.86
2019-06-07T10:48:41.715Z,49.38
2019-06-07T10:51:14.374Z,49.71
2019-06-07T10:53:42.443Z,50.30
2019-06-07T10:56:13.378Z,47.87
2019-06-07T10:58:43.007Z,47.39
2019-06-07T11:01:14.223Z,45.85
2019-06-07T11:03:45.099Z,47.30
2019-06-07T11:06:14.605Z,50.40
2019-06-07T11:08:44.190Z,50.20
2019-06-07T11:11:14.397Z,47.66
2019-06-07T11:13:43.982Z,47.45
2019-06-07T11:16:13.410Z,46.22
2019-06-07T11:18:42.836Z,46.89
2019-06-07T11:21:12.279Z,45.74
2019-06-07T11:23:41.702Z,45.37
2019-06-07T11:26:12.374Z,44.83
2019-06-07T11:28:42.022Z,44.22
2019-06-07T11:31:13.231Z,45.62
2019-06-07T11:33:43.101Z,44.48
2019-06-07T11:36:12.956Z,47.65
2019-06-07T11:38:42.344Z,45.85
2019-06-07T11:41:11.827Z,45.94
2019-06-07T11:43:41.307Z,45.59
2019-06-07T11:46:11.074Z,46.49
2019-06-07T11:48:40.663Z,45.11
2019-06-07T11:51:10.786Z,46.99
2019-06-07T11:53:40.435Z,45.61
2019-06-07T11:56:10.336Z,44.60
2019-06-07T11:58:40.046Z,44.28
2019-06-07T12:01:11.741Z,45.05
2019-06-07T12:03:41.340Z,47.08
2019-06-07T12:06:12.030Z,45.74
2019-06-07T12:08:41.874Z,45.95
2019-06-07T12:11:12.192Z,47.46
2019-06-07T12:13:41.798Z,47.36
2019-06-07T12:16:11.386Z,45.28
2019-06-07T12:18:40.806Z,44.44
2019-06-07T12:21:11.441Z,42.73
2019-06-07T12:23:40.963Z,45.86
2019-06-07T12:26:10.389Z,46.16
2019-06-07T12:28:41.303Z,44.87
2019-06-07T12:31:10.912Z,45.67
2019-06-07T12:33:58.141Z,45.08
2019-06-07T12:36:27.639Z,47.26
2019-06-07T12:38:57.066Z,47.20
2019-06-07T12:41:26.499Z,44.69
2019-06-07T12:43:59.105Z,44.48
2019-06-07T12:46:28.701Z,45.29
2019-06-07T12:48:58.237Z,45.48
2019-06-07T12:51:27.935Z,46.52
2019-06-07T12:53:57.411Z,43.76
2019-06-07T12:56:26.830Z,42.90
2019-06-07T12:58:56.311Z,44.56
2019-06-07T13:01:25.770Z,41.79
2019-06-07T13:03:55.210Z,42.24
2019-06-07T13:06:24.627Z,42.23
2019-06-07T13:08:54.138Z,41.71
2019-06-07T13:11:28.178Z,43.20
2019-06-07T13:13:54.752Z,42.71
2019-06-07T13:16:24.330Z,42.24
2019-06-07T13:18:53.720Z,42.86
2019-06-07T13:21:24.654Z,42.62
2019-06-07T13:23:54.299Z,44.53
2019-06-07T13:26:24.953Z,42.08
2019-06-07T13:28:54.637Z,42.28
2019-06-07T13:31:25.245Z,42.69
2019-06-07T13:33:54.771Z,40.03
2019-06-07T13:36:24.450Z,41.25
2019-06-07T13:38:54.004Z,40.02
2019-06-07T13:41:36.405Z,40.44
2019-06-07T13:43:54.664Z,41.11
2019-06-07T13:46:25.321Z,40.29
2019-06-07T13:48:54.963Z,38.94
2019-06-07T13:51:25.216Z,38.28
2019-06-07T13:53:55.530Z,40.31
2019-06-07T13:56:26.087Z,39.07
2019-06-07T13:58:55.618Z,40.87
2019-06-07T14:01:25.029Z,41.83
2019-06-07T14:03:54.607Z,43.42
2019-06-07T14:06:25.249Z,41.60
2019-06-07T14:08:55.131Z,40.09
2019-06-07T14:11:25.635Z,41.78
2019-06-07T14:13:55.095Z,40.31
2019-06-07T14:16:24.505Z,42.07
2019-06-07T14:18:53.943Z,42.29
2019-06-07T14:21:24.581Z,43.06
2019-06-07T14:23:54.172Z,43.51
2019-06-07T14:26:23.585Z,42.76
2019-06-07T14:28:53.183Z,43.94
2019-06-07T14:31:24.385Z,43.93
2019-06-07T14:33:53.767Z,43.70
2019-06-07T14:36:24.875Z,44.74
2019-06-07T14:38:54.330Z,44.96
2019-06-07T14:41:24.939Z,43.21
2019-06-07T14:43:54.658Z,41.72
2019-06-07T14:46:25.254Z,43.48
2019-06-07T14:48:55.857Z,43.09
2019-06-07T14:51:26.226Z,43.31
2019-06-07T14:53:55.653Z,40.92
2019-06-07T14:56:25.260Z,40.47
2019-06-07T14:58:56.166Z,41.99
2019-06-07T15:01:26.265Z,39.73
2019-06-07T15:04:05.339Z,40.81
2019-06-07T15:06:36.866Z,40.94
2019-06-07T15:09:07.877Z,40.94
2019-06-07T15:11:37.352Z,41.53
2019-06-07T15:14:06.869Z,40.96
2019-06-07T15:16:37.821Z,43.35
2019-06-07T15:19:07.450Z,44.26
2019-06-07T15:21:36.877Z,44.53
2019-06-07T15:24:06.403Z,45.14
2019-06-07T15:26:36.434Z,44.80
2019-06-07T15:29:07.062Z,46.93
2019-06-07T15:31:37.177Z,47.09
2019-06-07T15:34:09.389Z,47.74
2019-06-07T15:36:38.932Z,47.81
2019-06-07T15:39:08.527Z,46.58
2019-06-07T15:41:39.727Z,46.11
2019-06-07T15:44:09.526Z,45.88
2019-06-07T15:46:40.103Z,45.30
2019-06-07T15:49:09.992Z,43.09
2019-06-07T15:51:40.824Z,43.44
2019-06-07T15:54:10.542Z,41.85
2019-06-07T15:56:41.364Z,43.17
2019-06-07T15:59:12.266Z,45.00
2019-06-07T16:01:42.239Z,46.43
2019-06-07T16:04:11.902Z,46.87
2019-06-07T16:06:43.496Z,48.47
2019-06-07T16:09:12.607Z,49.98
2019-06-07T16:11:44.215Z,50.94
2019-06-07T16:14:13.794Z,48.24
2019-06-07T16:16:44.214Z,50.22
2019-06-07T16:19:13.764Z,49.71
2019-06-07T16:21:43.702Z,50.22
2019-06-07T16:24:13.126Z,51.07
2019-06-07T16:26:42.724Z,51.07
2019-06-07T16:29:12.150Z,52.28
2019-06-07T16:31:42.758Z,53.82
2019-06-07T16:34:12.271Z,53.41
2019-06-07T16:36:42.291Z,53.89
2019-06-07T16:39:11.729Z,54.07
2019-06-07T16:41:42.707Z,53.78
2019-06-07T16:44:12.292Z,53.39
2019-06-07T16:46:42.870Z,52.52
2019-06-07T16:49:13.563Z,52.71
2019-06-07T16:51:43.330Z,52.22
2019-06-07T16:54:14.829Z,52.23
2019-06-07T16:56:49.017Z,54.19
2019-06-07T16:59:16.849Z,55.80
2019-06-07T17:01:46.283Z,56.16
2019-06-07T17:04:15.782Z,55.91
2019-06-07T17:06:46.427Z,56.38
2019-06-07T17:09:16.027Z,56.14
2019-06-07T17:11:46.407Z,56.34
2019-06-07T17:14:16.095Z,56.20
2019-06-07T17:16:46.105Z,54.73
2019-06-07T17:19:16.671Z,53.95
2019-06-07T17:21:47.395Z,54.48
2019-06-07T17:24:17.021Z,55.42
2019-06-07T17:26:47.686Z,55.15
2019-06-07T17:29:17.277Z,55.04
2019-06-07T17:31:48.126Z,55.95
2019-06-07T17:34:17.792Z,55.28
2019-06-07T17:36:48.637Z,55.76
2019-06-07T17:39:18.303Z,57.37
2019-06-07T17:41:55.263Z,58.91
2019-06-07T17:44:18.894Z,63.74
2019-06-07T17:46:49.895Z,66.09
2019-06-07T17:49:19.512Z,68.87
2019-06-07T17:51:49.973Z,69.96
2019-06-07T17:54:19.462Z,70.76
2019-06-07T17:56:48.883Z,72.25
2019-06-07T17:59:18.341Z,72.73
2019-06-07T18:02:10.221Z,71.89
2019-06-07T18:04:18.951Z,71.89
2019-06-07T18:06:49.717Z,72.31
2019-06-07T18:09:19.740Z,74.97
2019-06-07T18:11:49.992Z,76.92
2019-06-07T18:14:19.615Z,73.98
2019-06-07T18:16:50.466Z,73.98
2019-06-07T18:19:20.038Z,77.33
2019-06-07T18:21:50.737Z,80.01
2019-06-07T18:24:21.303Z,81.82
2019-06-07T18:26:50.765Z,81.23
2019-06-07T18:29:20.253Z,85.30
2019-06-07T18:31:50.746Z,84.87
2019-06-07T18:34:20.167Z,84.42
2019-06-07T18:36:50.930Z,84.85
2019-06-07T18:39:20.518Z,87.02
2019-06-07T18:41:51.819Z,86.55
2019-06-07T18:44:22.044Z,85.55
2019-06-07T18:46:52.243Z,85.77
2019-06-07T18:49:21.699Z,82.36
2019-06-07T18:52:08.730Z,85.16
2019-06-07T18:54:38.156Z,84.50
2019-06-07T18:57:07.603Z,86.14
2019-06-07T18:59:36.998Z,85.42
2019-06-07T19:02:06.541Z,86.94
2019-06-07T19:04:35.995Z,86.09
2019-06-07T19:07:05.523Z,85.16
2019-06-07T19:09:34.993Z,88.75
2019-06-07T19:12:04.511Z,86.98
2019-06-07T19:14:37.414Z,87.90
2019-06-07T19:17:05.249Z,88.08
2019-06-07T19:19:34.709Z,88.47
2019-06-07T19:22:04.418Z,88.03
2019-06-07T19:24:33.924Z,89.21
2019-06-07T19:27:03.373Z,89.37
2019-06-07T19:29:32.813Z,88.73
2019-06-07T19:32:02.345Z,88.71
2019-06-07T19:34:31.904Z,89.16
2019-06-07T19:37:02.127Z,88.83
2019-06-07T19:39:31.550Z,89.20
2019-06-07T19:42:02.179Z,89.41
2019-06-07T19:44:31.795Z,89.43
2019-06-07T19:47:02.619Z,90.10
2019-06-07T19:49:32.242Z,90.67
2019-06-07T19:52:03.135Z,90.41
2019-06-07T19:54:32.646Z,90.68
2019-06-07T19:57:02.100Z,90.14
2019-06-07T19:59:31.509Z,90.92
2019-06-07T20:02:02.113Z,92.13
2019-06-07T20:04:31.642Z,92.04
2019-06-07T20:07:03.482Z,92.22
2019-06-07T20:09:32.473Z,93.81
2019-06-07T20:12:02.887Z,92.99
2019-06-07T20:14:32.391Z,93.81
2019-06-07T20:17:03.498Z,93.71
2019-06-07T20:19:33.041Z,94.26
2019-06-07T20:22:03.170Z,94.45
2019-06-07T20:24:32.721Z,94.59
2019-06-07T20:27:02.389Z,94.64
2019-06-07T20:29:31.812Z,95.09
2019-06-07T20:32:02.419Z,95.01
2019-06-07T20:34:31.994Z,94.24
2019-06-07T20:37:03.893Z,93.28
2019-06-07T20:39:32.593Z,93.71
2019-06-07T20:42:03.384Z,91.38
2019-06-07T20:44:33.037Z,91.34
2019-06-07T20:47:02.469Z,90.62
2019-06-07T20:49:31.914Z,90.50
2019-06-07T20:52:03.045Z,90.88
2019-06-07T20:54:32.500Z,90.30
2019-06-07T20:57:02.638Z,91.26
2019-06-07T20:59:32.236Z,91.69
2019-06-07T21:02:03.016Z,91.85
2019-06-07T21:04:32.615Z,92.49
2019-06-07T21:07:03.199Z,92.74
2019-06-07T21:09:32.827Z,92.41
2019-06-07T21:12:02.268Z,92.19
2019-06-07T21:14:31.714Z,92.57
2019-06-07T21:17:02.122Z,92.62
2019-06-07T21:19:31.686Z,92.56
2019-06-07T21:22:02.315Z,92.17
2019-06-07T21:24:31.889Z,92.03
2019-06-07T21:27:01.761Z,91.93
2019-06-07T21:29:32.508Z,90.99
2019-06-07T21:32:03.218Z,91.91
2019-06-07T21:34:32.818Z,91.82
2019-06-07T21:37:03.638Z,91.95
2019-06-07T21:39:33.304Z,92.43
2019-06-07T21:42:04.128Z,92.30
2019-06-07T21:44:33.841Z,91.85
2019-06-07T21:47:04.209Z,91.80
2019-06-07T21:49:35.073Z,91.20
2019-06-07T21:52:06.482Z,89.82
2019-06-07T21:54:36.128Z,89.26
2019-06-07T21:57:06.850Z,89.51
2019-06-07T21:59:36.422Z,88.71
2019-06-07T22:02:05.938Z,87.13
2019-06-07T22:04:35.385Z,86.84
2019-06-07T22:07:05.313Z,86.32
2019-06-07T22:09:34.877Z,86.00
2019-06-07T22:12:05.934Z,85.87
2019-06-07T22:14:35.471Z,86.50
2019-06-07T22:17:06.094Z,84.76
2019-06-07T22:19:35.593Z,81.63
2019-06-07T22:22:05.244Z,82.70
2019-06-07T22:24:36.143Z,81.47
2019-06-07T22:27:07.032Z,82.32
2019-06-07T22:29:36.613Z,81.07
2019-06-07T22:32:06.925Z,81.82
2019-06-07T22:34:36.381Z,81.19
2019-06-07T22:37:07.100Z,80.87
2019-06-07T22:39:36.736Z,81.83
2019-06-07T22:42:08.740Z,80.51
2019-06-07T22:44:40.142Z,81.19
2019-06-07T22:47:09.966Z,80.13
2019-06-07T22:49:39.515Z,78.95
2019-06-07T22:52:12.046Z,78.55
2019-06-07T22:54:40.141Z,79.63
2019-06-07T22:57:14.206Z,80.69
2019-06-07T22:59:43.646Z,78.54
2019-06-07T23:02:14.575Z,78.83
2019-06-07T23:04:44.134Z,79.76
2019-06-07T23:07:14.880Z,78.44
2019-06-07T23:09:44.503Z,78.93
2019-06-07T23:12:15.216Z,78.69
2019-06-07T23:14:44.781Z,78.96
2019-06-07T23:17:15.639Z,78.35
2019-06-07T23:19:45.315Z,78.99
2019-06-07T23:22:16.031Z,78.47
2019-06-07T23:24:45.563Z,77.54
2019-06-07T23:27:16.353Z,80.60
2019-06-07T23:29:45.971Z,77.70
2019-06-07T23:32:16.659Z,78.67
2019-06-07T23:34:46.177Z,78.24
2019-06-07T23:37:17.020Z,78.67
2019-06-07T23:39:46.491Z,79.45
2019-06-07T23:42:15.937Z,78.95
2019-06-07T23:44:45.344Z,78.94
2019-06-07T23:47:17.165Z,79.92
2019-06-07T23:49:46.082Z,79.58
2019-06-07T23:52:15.765Z,80.41
2019-06-07T23:54:45.175Z,80.96
2019-06-07T23:57:15.925Z,80.95
2019-06-07T23:59:45.417Z,80.46
